createdAt,value
2018-09-23T00:01:48.477Z,1.10
2018-09-23T00:04:15.553Z,1.80
2018-09-23T00:06:43.042Z,1.00
2018-09-23T00:09:10.137Z,0.87
2018-09-23T00:11:37.435Z,1.40
2018-09-23T00:14:04.688Z,0.87
2018-09-23T00:16:31.779Z,1.30
2018-09-23T00:18:58.860Z,0.70
2018-09-23T00:21:25.949Z,0.50
2018-09-23T00:23:53.030Z,1.00
2018-09-23T00:26:20.119Z,1.30
2018-09-23T00:28:47.202Z,1.07
2018-09-23T00:31:14.267Z,1.33
2018-09-23T00:33:41.337Z,0.70
2018-09-23T00:36:08.438Z,0.97
2018-09-23T00:38:35.525Z,0.90
2018-09-23T00:41:02.769Z,1.53
2018-09-23T00:43:29.885Z,0.90
2018-09-23T00:45:56.953Z,0.90
2018-09-23T00:48:24.045Z,1.00
2018-09-23T00:50:51.145Z,1.00
2018-09-23T00:53:18.219Z,0.93
2018-09-23T00:55:45.293Z,1.00
2018-09-23T00:58:12.362Z,0.97
2018-09-23T01:00:39.515Z,0.87
2018-09-23T01:03:06.607Z,0.77
2018-09-23T01:05:33.706Z,0.63
2018-09-23T01:08:00.785Z,1.10
2018-09-23T01:10:27.873Z,0.97
2018-09-23T01:12:54.993Z,1.30
2018-09-23T01:15:22.107Z,0.90
2018-09-23T01:17:49.530Z,0.70
2018-09-23T01:20:16.628Z,1.00
2018-09-23T01:22:43.697Z,1.07
2018-09-23T01:25:10.786Z,0.73
2018-09-23T01:27:37.902Z,0.77
2018-09-23T01:30:05.101Z,0.73
2018-09-23T01:32:32.194Z,1.03
2018-09-23T01:34:59.279Z,1.20
2018-09-23T01:37:26.350Z,0.70
2018-09-23T01:39:53.441Z,0.97
2018-09-23T01:42:20.511Z,1.17
2018-09-23T01:44:47.601Z,0.83
2018-09-23T01:47:14.690Z,0.80
2018-09-23T01:49:41.787Z,0.90
2018-09-23T01:52:08.865Z,0.87
2018-09-23T01:54:35.953Z,1.07
2018-09-23T01:57:03.038Z,0.63
2018-09-23T01:59:30.122Z,0.60
2018-09-23T02:01:57.821Z,0.73
2018-09-23T02:04:24.950Z,0.80
2018-09-23T02:06:52.037Z,0.57
2018-09-23T02:09:19.141Z,0.80
2018-09-23T02:11:46.217Z,0.80
2018-09-23T02:14:13.339Z,0.73
2018-09-23T02:16:40.766Z,0.60
2018-09-23T02:19:07.886Z,0.83
2018-09-23T02:21:35.022Z,0.87
2018-09-23T02:24:02.110Z,0.67
2018-09-23T02:26:29.218Z,0.80
2018-09-23T02:28:56.293Z,0.83
2018-09-23T02:31:23.389Z,1.00
2018-09-23T02:33:50.468Z,0.97
2018-09-23T02:36:17.570Z,0.83
2018-09-23T02:38:44.654Z,0.60
2018-09-23T02:41:11.729Z,0.80
2018-09-23T02:43:38.809Z,0.70
2018-09-23T02:46:05.957Z,0.83
2018-09-23T02:48:33.026Z,1.13
2018-09-23T02:51:00.113Z,1.00
2018-09-23T02:53:27.670Z,0.90
2018-09-23T02:55:54.753Z,1.00
2018-09-23T02:58:21.846Z,1.00
2018-09-23T03:00:48.949Z,0.90
2018-09-23T03:03:16.037Z,1.10
2018-09-23T03:05:43.966Z,0.80
2018-09-23T03:08:11.074Z,0.77
2018-09-23T03:10:38.150Z,0.53
2018-09-23T03:13:05.237Z,1.00
2018-09-23T03:15:32.715Z,0.90
2018-09-23T03:17:59.798Z,0.90
2018-09-23T03:20:26.885Z,1.17
2018-09-23T03:22:54.125Z,0.70
2018-09-23T03:25:21.209Z,0.70
2018-09-23T03:27:48.306Z,1.10
2018-09-23T03:30:15.395Z,0.90
2018-09-23T03:32:42.484Z,0.67
2018-09-23T03:35:09.567Z,1.27
2018-09-23T03:37:36.975Z,0.90
2018-09-23T03:40:04.061Z,0.87
2018-09-23T03:42:31.164Z,0.83
2018-09-23T03:44:58.256Z,1.30
2018-09-23T03:47:25.633Z,0.80
2018-09-23T03:49:52.757Z,0.67
2018-09-23T03:52:19.863Z,0.70
2018-09-23T03:54:46.942Z,0.93
2018-09-23T03:57:14.028Z,1.10
2018-09-23T03:59:41.381Z,1.00
2018-09-23T04:02:08.470Z,0.77
2018-09-23T04:04:35.542Z,1.00
2018-09-23T04:07:02.749Z,0.77
2018-09-23T04:09:29.831Z,0.90
2018-09-23T04:11:56.928Z,0.90
2018-09-23T04:14:23.990Z,0.90
2018-09-23T04:16:51.066Z,0.90
2018-09-23T04:19:18.529Z,0.70
2018-09-23T04:21:45.598Z,1.20
2018-09-23T04:24:12.674Z,0.83
2018-09-23T04:26:39.765Z,0.90
2018-09-23T04:29:06.864Z,0.83
2018-09-23T04:31:33.945Z,1.10
2018-09-23T04:34:01.038Z,0.77
2018-09-23T04:36:28.137Z,0.87
2018-09-23T04:38:55.223Z,0.80
2018-09-23T04:41:22.298Z,0.77
2018-09-23T04:43:49.370Z,0.90
2018-09-23T04:46:16.829Z,0.93
2018-09-23T04:48:43.926Z,0.83
2018-09-23T04:51:11.001Z,0.70
2018-09-23T04:53:38.398Z,0.70
2018-09-23T04:56:05.485Z,0.93
2018-09-23T04:58:32.562Z,0.80
2018-09-23T05:00:59.637Z,0.87
2018-09-23T05:03:26.706Z,1.60
2018-09-23T05:05:53.793Z,1.10
2018-09-23T05:08:20.869Z,0.80
2018-09-23T05:10:47.993Z,0.73
2018-09-23T05:13:15.101Z,0.70
2018-09-23T05:15:42.185Z,1.20
2018-09-23T05:18:09.286Z,1.10
2018-09-23T05:20:36.369Z,1.20
2018-09-23T05:23:03.449Z,1.30
2018-09-23T05:25:30.513Z,1.17
2018-09-23T05:27:57.713Z,1.23
2018-09-23T05:30:25.118Z,1.20
2018-09-23T05:32:52.198Z,1.00
2018-09-23T05:35:19.279Z,1.07
2018-09-23T05:37:46.661Z,2.43
2018-09-23T05:40:13.754Z,1.47
2018-09-23T05:42:40.997Z,1.70
2018-09-23T05:45:09.042Z,1.70
2018-09-23T05:47:36.156Z,1.67
2018-09-23T05:50:03.495Z,1.23
2018-09-23T05:52:30.581Z,1.57
2018-09-23T05:54:57.674Z,1.83
2018-09-23T05:57:24.749Z,1.80
2018-09-23T05:59:51.817Z,1.73
2018-09-23T06:02:18.926Z,1.07
2018-09-23T06:04:46.027Z,1.07
2018-09-23T06:07:13.107Z,1.73
2018-09-23T06:09:40.179Z,1.60
2018-09-23T06:12:07.342Z,2.70
2018-09-23T06:14:34.401Z,1.47
2018-09-23T06:17:01.514Z,1.93
2018-09-23T06:19:28.585Z,1.70
2018-09-23T06:21:55.660Z,1.20
2018-09-23T06:24:22.758Z,1.10
2018-09-23T06:26:49.845Z,1.50
2018-09-23T06:29:16.924Z,1.50
2018-09-23T06:31:44.050Z,1.10
2018-09-23T06:34:11.177Z,1.30
2018-09-23T06:36:38.256Z,1.30
2018-09-23T06:39:06.509Z,0.80
2018-09-23T06:41:33.829Z,1.00
2018-09-23T06:44:01.014Z,1.00
2018-09-23T06:46:28.104Z,1.30
2018-09-23T06:48:55.193Z,1.27
2018-09-23T06:51:22.286Z,1.67
2018-09-23T06:53:49.353Z,1.57
2018-09-23T06:56:16.427Z,0.90
2018-09-23T06:58:43.514Z,1.27
2018-09-23T07:01:10.600Z,1.20
2018-09-23T07:03:37.677Z,1.50
2018-09-23T07:06:05.313Z,1.37
2018-09-23T07:08:32.386Z,1.63
2018-09-23T07:10:59.457Z,1.60
2018-09-23T07:13:26.539Z,1.57
2018-09-23T07:15:53.705Z,1.67
2018-09-23T07:18:20.785Z,1.80
2018-09-23T07:20:47.870Z,2.33
2018-09-23T07:23:14.937Z,3.17
2018-09-23T07:25:42.026Z,4.67
2018-09-23T07:28:09.132Z,3.90
2018-09-23T07:30:36.256Z,5.47
2018-09-23T07:33:03.328Z,5.63
2018-09-23T07:35:32.521Z,4.43
2018-09-23T07:37:59.601Z,5.60
2018-09-23T07:40:26.677Z,6.37
2018-09-23T07:42:53.783Z,5.80
2018-09-23T07:45:20.874Z,6.00
2018-09-23T07:47:50.060Z,5.13
2018-09-23T07:50:17.147Z,5.77
2018-09-23T07:52:44.229Z,5.10
2018-09-23T07:55:11.309Z,6.27
2018-09-23T07:57:38.389Z,6.00
2018-09-23T08:00:05.806Z,6.70
2018-09-23T08:02:32.873Z,5.93
2018-09-23T08:04:59.962Z,5.57
2018-09-23T08:07:27.047Z,5.20
2018-09-23T08:09:54.117Z,5.40
2018-09-23T08:12:21.266Z,5.17
2018-09-23T08:14:48.753Z,6.70
2018-09-23T08:17:15.431Z,5.37
2018-09-23T08:19:42.618Z,4.87
2018-09-23T08:22:09.568Z,5.70
2018-09-23T08:24:36.657Z,4.20
2018-09-23T08:27:03.738Z,4.67
2018-09-23T08:29:30.822Z,4.80
2018-09-23T08:31:57.954Z,4.67
2018-09-23T08:34:25.050Z,4.17
2018-09-23T08:36:52.131Z,4.57
2018-09-23T08:39:19.239Z,4.10
2018-09-23T08:41:46.325Z,4.77
2018-09-23T08:44:13.402Z,4.73
2018-09-23T08:46:40.761Z,4.07
2018-09-23T08:49:07.829Z,4.13
2018-09-23T08:51:34.898Z,4.03
2018-09-23T08:54:01.982Z,4.20
2018-09-23T08:56:29.054Z,4.13
2018-09-23T08:58:56.153Z,3.63
2018-09-23T09:01:23.230Z,3.30
2018-09-23T09:03:50.359Z,3.90
2018-09-23T09:06:17.388Z,3.93
2018-09-23T09:08:44.462Z,3.87
2018-09-23T09:11:11.553Z,3.13
2018-09-23T09:13:38.841Z,2.97
2018-09-23T09:16:05.922Z,3.10
2018-09-23T09:18:33.151Z,2.80
2018-09-23T09:21:00.206Z,3.20
2018-09-23T09:23:27.313Z,3.37
2018-09-23T09:25:54.479Z,3.50
2018-09-23T09:28:21.564Z,3.40
2018-09-23T09:30:48.639Z,3.03
2018-09-23T09:33:15.833Z,4.30
2018-09-23T09:35:42.909Z,3.00
2018-09-23T09:38:09.977Z,3.60
2018-09-23T09:40:37.045Z,3.50
2018-09-23T09:43:04.145Z,2.67
2018-09-23T09:45:31.238Z,3.30
2018-09-23T09:47:58.307Z,2.80
2018-09-23T09:50:25.405Z,3.13
2018-09-23T09:52:52.473Z,3.30
2018-09-23T09:55:19.615Z,3.07
2018-09-23T09:57:46.650Z,2.90
2018-09-23T10:00:17.953Z,2.70
2018-09-23T10:02:45.054Z,2.63
2018-09-23T10:05:12.146Z,3.17
2018-09-23T10:07:39.209Z,1.83
2018-09-23T10:10:06.277Z,2.23
2018-09-23T10:12:33.614Z,3.43
2018-09-23T10:15:00.690Z,2.47
2018-09-23T10:17:27.757Z,2.27
2018-09-23T10:19:55.215Z,3.00
2018-09-23T10:22:22.307Z,2.20
2018-09-23T10:24:49.385Z,2.60
2018-09-23T10:27:16.570Z,1.83
2018-09-23T10:29:43.674Z,2.57
2018-09-23T10:32:10.729Z,1.80
2018-09-23T10:34:37.822Z,1.90
2018-09-23T10:37:04.989Z,2.07
2018-09-23T10:39:32.069Z,1.90
2018-09-23T10:41:59.607Z,2.13
2018-09-23T10:44:26.682Z,1.43
2018-09-23T10:46:54.455Z,1.87
2018-09-23T10:49:21.546Z,2.00
2018-09-23T10:51:48.626Z,1.60
2018-09-23T10:54:15.714Z,1.83
2018-09-23T10:56:42.801Z,2.07
2018-09-23T10:59:09.865Z,2.27
2018-09-23T11:01:36.970Z,2.37
2018-09-23T11:04:04.120Z,2.00
2018-09-23T11:06:31.131Z,1.93
2018-09-23T11:08:58.242Z,1.67
2018-09-23T11:11:25.322Z,1.80
2018-09-23T11:13:52.394Z,1.73
2018-09-23T11:16:19.483Z,1.30
2018-09-23T11:18:46.579Z,1.70
2018-09-23T11:21:13.753Z,1.37
2018-09-23T11:23:40.825Z,1.77
2018-09-23T11:26:07.909Z,1.70
2018-09-23T11:28:34.985Z,2.00
2018-09-23T11:31:02.066Z,1.27
2018-09-23T11:33:29.332Z,1.10
2018-09-23T11:35:56.406Z,1.20
2018-09-23T11:38:23.475Z,1.70
2018-09-23T11:40:50.553Z,1.70
2018-09-23T11:43:17.841Z,1.73
2018-09-23T11:45:44.917Z,1.37
2018-09-23T11:48:12.012Z,1.73
2018-09-23T11:50:39.098Z,2.10
2018-09-23T11:53:06.173Z,2.50
2018-09-23T11:55:33.607Z,2.77
2018-09-23T11:58:00.650Z,1.80
2018-09-23T12:00:27.739Z,1.53
2018-09-23T12:02:54.862Z,1.70
2018-09-23T12:05:21.950Z,2.43
2018-09-23T12:07:49.030Z,1.57
2018-09-23T12:10:16.120Z,1.23
2018-09-23T12:12:43.175Z,1.20
2018-09-23T12:15:10.266Z,1.47
2018-09-23T12:17:37.570Z,1.60
2018-09-23T12:20:04.670Z,1.03
2018-09-23T12:22:31.753Z,0.83
2018-09-23T12:24:59.222Z,1.30
2018-09-23T12:27:26.294Z,1.20
2018-09-23T12:29:53.366Z,1.20
2018-09-23T12:32:20.686Z,1.10
2018-09-23T12:34:47.754Z,1.10
2018-09-23T12:37:14.853Z,1.20
2018-09-23T12:39:41.949Z,1.87
2018-09-23T12:42:09.022Z,1.10
2018-09-23T12:44:36.097Z,0.90
2018-09-23T12:47:03.210Z,1.00
2018-09-23T12:49:30.314Z,1.10
2018-09-23T12:51:57.897Z,1.70
2018-09-23T12:54:25.166Z,1.37
2018-09-23T12:56:52.256Z,1.00
2018-09-23T12:59:19.354Z,1.40
2018-09-23T13:01:46.442Z,0.90
2018-09-23T13:04:13.535Z,1.40
2018-09-23T13:06:40.634Z,1.00
2018-09-23T13:09:08.005Z,0.87
2018-09-23T13:11:35.095Z,1.07
2018-09-23T13:14:02.182Z,1.30
2018-09-23T13:16:29.289Z,1.70
2018-09-23T13:18:56.374Z,1.30
2018-09-23T13:21:23.462Z,2.10
2018-09-23T13:23:50.558Z,1.60
2018-09-23T13:26:17.767Z,1.30
2018-09-23T13:28:44.842Z,1.40
2018-09-23T13:31:12.167Z,1.23
2018-09-23T13:33:39.658Z,1.50
2018-09-23T13:36:06.749Z,1.20
2018-09-23T13:38:33.834Z,1.10
2018-09-23T13:41:00.938Z,1.60
2018-09-23T13:43:27.997Z,1.73
2018-09-23T13:45:55.067Z,2.87
2018-09-23T13:48:22.306Z,1.40
2018-09-23T13:50:49.381Z,1.20
2018-09-23T13:53:16.453Z,1.10
2018-09-23T13:55:43.531Z,1.17
2018-09-23T13:58:10.593Z,1.10
2018-09-23T14:00:37.661Z,1.30
2018-09-23T14:03:04.854Z,1.10
2018-09-23T14:05:31.923Z,0.70
2018-09-23T14:07:58.997Z,1.10
2018-09-23T14:10:26.073Z,1.00
2018-09-23T14:12:53.149Z,0.90
2018-09-23T14:15:20.234Z,0.63
2018-09-23T14:17:47.324Z,1.00
2018-09-23T14:20:14.579Z,0.73
2018-09-23T14:22:41.668Z,0.90
2018-09-23T14:25:08.753Z,0.70
2018-09-23T14:27:35.833Z,1.00
2018-09-23T14:30:02.917Z,0.93
2018-09-23T14:32:29.990Z,1.10
2018-09-23T14:34:57.077Z,0.50
2018-09-23T14:37:24.157Z,0.80
2018-09-23T14:39:51.238Z,0.77
2018-09-23T14:42:18.355Z,0.67
2018-09-23T14:44:45.621Z,0.70
2018-09-23T14:47:12.694Z,0.60
2018-09-23T14:49:40.074Z,0.50
2018-09-23T14:52:07.150Z,0.50
2018-09-23T14:54:34.462Z,0.43
2018-09-23T14:57:01.310Z,0.53
2018-09-23T14:59:28.421Z,0.50
2018-09-23T15:01:55.526Z,0.60
2018-09-23T15:04:22.613Z,0.50
2018-09-23T15:06:49.686Z,0.77
2018-09-23T15:09:16.762Z,0.70
2018-09-23T15:11:43.857Z,0.50
2018-09-23T15:14:11.026Z,0.50
2018-09-23T15:16:38.010Z,0.83
2018-09-23T15:19:05.298Z,0.60
2018-09-23T15:21:32.377Z,0.33
2018-09-23T15:23:59.450Z,0.70
2018-09-23T15:26:26.582Z,0.60
2018-09-23T15:28:53.649Z,0.40
2018-09-23T15:31:20.726Z,0.60
2018-09-23T15:33:47.817Z,0.43
2018-09-23T15:36:15.176Z,0.50
2018-09-23T15:38:42.257Z,0.67
2018-09-23T15:41:09.341Z,0.40
2018-09-23T15:43:36.857Z,0.57
2018-09-23T15:46:03.921Z,0.53
2018-09-23T15:48:31.028Z,0.70
2018-09-23T15:50:58.103Z,0.30
2018-09-23T15:53:25.194Z,0.73
2018-09-23T15:55:52.293Z,0.63
2018-09-23T15:58:19.386Z,0.77
2018-09-23T16:00:46.509Z,0.60
2018-09-23T16:03:13.597Z,0.70
2018-09-23T16:05:40.694Z,1.10
2018-09-23T16:08:07.782Z,0.83
2018-09-23T16:10:34.853Z,0.50
2018-09-23T16:13:01.954Z,0.70
2018-09-23T16:15:29.030Z,0.63
2018-09-23T16:17:56.105Z,0.70
2018-09-23T16:20:23.198Z,0.60
2018-09-23T16:22:50.377Z,0.83
2018-09-23T16:25:17.470Z,0.87
2018-09-23T16:27:44.578Z,0.80
2018-09-23T16:30:12.014Z,0.60
2018-09-23T16:32:39.137Z,0.90
2018-09-23T16:35:06.222Z,0.60
2018-09-23T16:37:33.503Z,0.80
2018-09-23T16:40:00.574Z,0.80
2018-09-23T16:42:27.665Z,0.97
2018-09-23T16:44:54.754Z,0.93
2018-09-23T16:47:21.845Z,0.73
2018-09-23T16:49:48.934Z,0.97
2018-09-23T16:52:16.050Z,0.73
2018-09-23T16:54:43.405Z,0.70
2018-09-23T16:57:10.391Z,0.90
2018-09-23T16:59:37.527Z,0.80
2018-09-23T17:02:04.702Z,0.80
2018-09-23T17:04:31.818Z,0.53
2018-09-23T17:06:58.919Z,0.83
2018-09-23T17:09:26.006Z,0.80
2018-09-23T17:11:53.089Z,0.77
2018-09-23T17:14:20.190Z,0.97
2018-09-23T17:16:47.275Z,0.90
2018-09-23T17:19:14.385Z,0.80
2018-09-23T17:21:41.874Z,0.80
2018-09-23T17:24:09.002Z,0.83
2018-09-23T17:26:36.096Z,1.00
2018-09-23T17:29:03.194Z,0.60
2018-09-23T17:31:30.331Z,0.90
2018-09-23T17:33:57.422Z,0.77
2018-09-23T17:36:24.514Z,1.23
2018-09-23T17:38:51.968Z,1.27
2018-09-23T17:41:19.041Z,0.90
2018-09-23T17:43:46.126Z,1.00
2018-09-23T17:46:13.357Z,0.90
2018-09-23T17:48:40.439Z,0.90
2018-09-23T17:51:07.536Z,2.77
2018-09-23T17:53:34.631Z,1.13
2018-09-23T17:56:01.735Z,0.93
2018-09-23T17:58:28.870Z,1.27
2018-09-23T18:00:55.969Z,1.27
2018-09-23T18:03:23.134Z,1.07
2018-09-23T18:05:50.238Z,1.07
2018-09-23T18:08:17.325Z,1.60
2018-09-23T18:10:44.421Z,1.00
2018-09-23T18:13:11.510Z,1.00
2018-09-23T18:15:39.208Z,2.10
2018-09-23T18:18:06.449Z,1.90
2018-09-23T18:20:33.549Z,1.40
2018-09-23T18:23:00.636Z,1.03
2018-09-23T18:25:27.722Z,1.70
2018-09-23T18:27:54.830Z,1.60
2018-09-23T18:30:22.294Z,1.63
2018-09-23T18:32:49.450Z,0.90
2018-09-23T18:35:16.558Z,1.07
2018-09-23T18:37:43.688Z,2.03
2018-09-23T18:40:10.758Z,1.40
2018-09-23T18:42:37.850Z,0.87
2018-09-23T18:45:05.045Z,1.20
2018-09-23T18:47:32.150Z,1.77
2018-09-23T18:49:59.316Z,1.60
2018-09-23T18:52:26.433Z,2.30
2018-09-23T18:54:59.258Z,2.30
2018-09-23T18:57:27.080Z,1.63
2018-09-23T18:59:54.161Z,2.07
2018-09-23T19:02:21.245Z,1.63
2018-09-23T19:04:52.441Z,2.63
2018-09-23T19:07:19.549Z,1.53
2018-09-23T19:09:46.638Z,1.93
2018-09-23T19:12:14.111Z,2.10
2018-09-23T19:14:41.453Z,1.67
2018-09-23T19:17:08.546Z,1.70
2018-09-23T19:19:41.417Z,1.50
2018-09-23T19:22:14.422Z,1.53
2018-09-23T19:24:41.510Z,1.17
2018-09-23T19:27:09.512Z,1.97
2018-09-23T19:29:36.598Z,0.93
2018-09-23T19:32:04.325Z,1.07
2018-09-23T19:34:31.427Z,1.77
2018-09-23T19:36:58.514Z,1.70
2018-09-23T19:39:25.609Z,1.13
2018-09-23T19:41:52.717Z,1.47
2018-09-23T19:44:19.845Z,1.00
2018-09-23T19:46:46.952Z,1.13
2018-09-23T19:49:14.086Z,1.23
2018-09-23T19:51:41.157Z,0.87
2018-09-23T19:54:08.337Z,1.07
2018-09-23T19:56:35.462Z,1.20
2018-09-23T19:59:02.625Z,1.10
2018-09-23T20:01:29.702Z,0.87
2018-09-23T20:03:56.790Z,1.00
2018-09-23T20:06:23.893Z,1.20
2018-09-23T20:08:50.993Z,1.30
2018-09-23T20:11:18.293Z,1.00
2018-09-23T20:13:45.438Z,1.10
2018-09-23T20:16:12.650Z,1.20
2018-09-23T20:18:39.743Z,1.40
2018-09-23T20:21:07.829Z,1.57
2018-09-23T20:23:35.580Z,1.97
2018-09-23T20:26:02.690Z,1.20
2018-09-23T20:28:29.782Z,1.60
2018-09-23T20:30:56.877Z,1.47
2018-09-23T20:33:24.006Z,1.30
2018-09-23T20:35:51.393Z,1.23
2018-09-23T20:38:18.771Z,1.07
2018-09-23T20:40:45.857Z,1.23
2018-09-23T20:43:13.214Z,2.13
2018-09-23T20:45:40.310Z,1.30
2018-09-23T20:48:07.422Z,1.07
2018-09-23T20:50:34.630Z,1.53
2018-09-23T20:53:01.710Z,0.87
2018-09-23T20:55:28.806Z,1.73
2018-09-23T20:57:56.170Z,1.43
2018-09-23T21:00:23.257Z,1.07
2018-09-23T21:02:50.346Z,0.60
2018-09-23T21:05:17.429Z,1.00
2018-09-23T21:07:44.523Z,1.10
2018-09-23T21:10:11.627Z,0.87
2018-09-23T21:12:38.697Z,1.17
2018-09-23T21:15:06.455Z,1.50
2018-09-23T21:17:33.547Z,1.07
2018-09-23T21:20:00.649Z,1.37
2018-09-23T21:22:27.893Z,1.30
2018-09-23T21:24:55.026Z,0.87
2018-09-23T21:27:22.122Z,1.10
2018-09-23T21:29:49.226Z,1.03
2018-09-23T21:32:16.384Z,0.87
2018-09-23T21:34:43.470Z,0.97
2018-09-23T21:37:10.557Z,1.07
2018-09-23T21:39:37.666Z,0.63
2018-09-23T21:42:04.754Z,0.80
2018-09-23T21:44:31.829Z,2.13
2018-09-23T21:46:58.905Z,1.40
2018-09-23T21:49:26.005Z,1.03
2018-09-23T21:51:53.073Z,1.20
2018-09-23T21:54:20.489Z,0.80
2018-09-23T21:56:47.569Z,1.20
2018-09-23T21:59:14.664Z,1.03
2018-09-23T22:01:41.745Z,1.13
2018-09-23T22:04:09.021Z,1.10
2018-09-23T22:06:36.113Z,1.17
2018-09-23T22:09:04.422Z,1.40
2018-09-23T22:11:31.520Z,0.70
2018-09-23T22:13:58.758Z,1.50
2018-09-23T22:16:25.837Z,1.37
2018-09-23T22:18:52.921Z,1.50
2018-09-23T22:21:20.113Z,0.90
2018-09-23T22:23:47.217Z,0.90
2018-09-23T22:26:14.303Z,1.07
2018-09-23T22:28:41.404Z,0.97
2018-09-23T22:31:08.484Z,1.20
2018-09-23T22:33:35.573Z,1.20
2018-09-23T22:36:02.653Z,1.07
2018-09-23T22:38:29.730Z,1.03
2018-09-23T22:40:56.822Z,1.57
2018-09-23T22:43:24.087Z,1.00
2018-09-23T22:45:51.198Z,1.50
2018-09-23T22:48:18.281Z,0.77
2018-09-23T22:50:45.349Z,1.00
2018-09-23T22:53:12.709Z,1.20
2018-09-23T22:55:39.969Z,1.23
2018-09-23T22:58:07.229Z,1.13
2018-09-23T23:00:34.313Z,1.03
2018-09-23T23:03:01.391Z,0.93
2018-09-23T23:05:28.511Z,1.20
2018-09-23T23:07:55.598Z,1.00
2018-09-23T23:10:22.677Z,1.20
2018-09-23T23:12:49.756Z,1.07
2018-09-23T23:15:16.860Z,1.17
2018-09-23T23:17:43.938Z,1.10
2018-09-23T23:20:11.071Z,0.97
2018-09-23T23:22:38.151Z,0.97
2018-09-23T23:25:05.334Z,1.77
2018-09-23T23:27:33.522Z,0.97
2018-09-23T23:30:00.605Z,0.70
2018-09-23T23:32:27.724Z,1.50
2018-09-23T23:34:54.817Z,0.67
2018-09-23T23:37:21.914Z,0.67
2018-09-23T23:39:49.001Z,0.47
2018-09-23T23:42:16.371Z,0.63
2018-09-23T23:44:43.458Z,0.80
2018-09-23T23:47:10.595Z,0.97
2018-09-23T23:49:37.661Z,0.90
2018-09-23T23:52:04.793Z,1.00
2018-09-23T23:54:31.906Z,1.10
2018-09-23T23:56:58.990Z,1.00
2018-09-23T23:59:26.069Z,0.77
